createdAt,value
2019-02-14T00:01:12.960Z,5.58
2019-02-14T00:03:44.205Z,7.22
2019-02-14T00:06:15.735Z,7.03
2019-02-14T00:08:47.244Z,10.82
2019-02-14T00:11:18.685Z,10.20
2019-02-14T00:13:51.172Z,12.70
2019-02-14T00:16:22.703Z,10.00
2019-02-14T00:18:53.995Z,12.40
2019-02-14T00:21:25.269Z,11.25
2019-02-14T00:23:56.755Z,16.20
2019-02-14T00:26:27.944Z,11.18
2019-02-14T00:28:59.123Z,12.75
2019-02-14T00:31:32.900Z,7.40
2019-02-14T00:34:04.363Z,8.78
2019-02-14T00:36:35.591Z,10.00
2019-02-14T00:39:07.573Z,6.37
2019-02-14T00:41:39.984Z,7.45
2019-02-14T00:44:11.460Z,6.92
2019-02-14T00:46:42.664Z,8.53
2019-02-14T00:49:14.323Z,8.53
2019-02-14T00:51:46.122Z,9.28
2019-02-14T00:54:17.498Z,10.28
2019-02-14T00:56:49.084Z,13.78
2019-02-14T00:59:20.280Z,10.55
2019-02-14T01:01:51.730Z,11.78
2019-02-14T01:04:23.062Z,11.53
2019-02-14T01:06:54.724Z,14.55
2019-02-14T01:09:26.201Z,13.32
2019-02-14T01:11:57.437Z,10.45
2019-02-14T01:14:28.768Z,12.90
2019-02-14T01:16:59.980Z,12.58
2019-02-14T01:19:31.240Z,16.20
2019-02-14T01:22:02.417Z,13.13
2019-02-14T01:24:33.833Z,10.95
2019-02-14T01:27:05.070Z,11.20
2019-02-14T01:29:36.523Z,9.00
2019-02-14T01:32:08.721Z,11.03
2019-02-14T01:34:40.033Z,12.10
2019-02-14T01:37:11.382Z,14.05
2019-02-14T01:39:42.591Z,13.45
2019-02-14T01:42:13.778Z,12.03
2019-02-14T01:44:45.353Z,13.35
2019-02-14T01:47:18.203Z,13.65
2019-02-14T01:49:49.387Z,13.20
2019-02-14T01:52:20.877Z,14.03
2019-02-14T01:54:52.088Z,12.30
2019-02-14T01:57:23.541Z,13.85
2019-02-14T01:59:54.746Z,13.83
2019-02-14T02:02:26.352Z,16.10
2019-02-14T02:04:57.756Z,16.55
2019-02-14T02:07:29.183Z,14.85
2019-02-14T02:10:00.772Z,16.45
2019-02-14T02:12:32.261Z,17.12
2019-02-14T02:15:03.928Z,16.32
2019-02-14T02:17:35.930Z,16.07
2019-02-14T02:20:08.011Z,17.45
2019-02-14T02:22:39.704Z,18.90
2019-02-14T02:25:12.034Z,17.57
2019-02-14T02:27:43.619Z,15.90
2019-02-14T02:30:15.568Z,17.52
2019-02-14T02:32:47.085Z,18.45
2019-02-14T02:35:18.516Z,20.02
2019-02-14T02:37:50.044Z,16.75
2019-02-14T02:40:21.396Z,19.60
2019-02-14T02:42:52.648Z,13.88
2019-02-14T02:45:24.374Z,17.02
2019-02-14T02:47:56.012Z,15.25
2019-02-14T02:50:27.402Z,15.98
2019-02-14T02:52:58.648Z,18.55
2019-02-14T02:55:29.943Z,16.87
2019-02-14T02:58:01.264Z,16.77
2019-02-14T03:00:32.591Z,18.82
2019-02-14T03:03:04.295Z,20.68
2019-02-14T03:05:35.506Z,16.32
2019-02-14T03:08:07.048Z,15.28
2019-02-14T03:10:38.502Z,20.27
2019-02-14T03:13:10.987Z,17.48
2019-02-14T03:15:42.655Z,19.75
2019-02-14T03:18:13.880Z,18.32
2019-02-14T03:20:45.414Z,18.10
2019-02-14T03:23:16.861Z,19.80
2019-02-14T03:25:48.346Z,14.95
2019-02-14T03:28:19.892Z,18.37
2019-02-14T03:30:51.555Z,17.57
2019-02-14T03:33:23.049Z,16.85
2019-02-14T03:35:54.558Z,16.30
2019-02-14T03:38:26.011Z,19.00
2019-02-14T03:40:57.514Z,19.15
2019-02-14T03:43:28.913Z,17.60
2019-02-14T03:46:00.248Z,16.02
2019-02-14T03:48:31.502Z,20.62
2019-02-14T03:51:02.750Z,19.77
2019-02-14T03:53:34.111Z,20.37
2019-02-14T03:56:05.430Z,17.98
2019-02-14T03:58:36.780Z,18.15
2019-02-14T04:01:08.275Z,21.10
2019-02-14T04:03:40.946Z,19.45
2019-02-14T04:06:12.630Z,18.55
2019-02-14T04:08:44.211Z,23.05
2019-02-14T04:11:15.773Z,19.35
2019-02-14T04:13:47.420Z,20.00
2019-02-14T04:16:19.041Z,23.30
2019-02-14T04:18:50.391Z,17.23
2019-02-14T04:21:21.882Z,20.35
2019-02-14T04:23:53.215Z,19.25
2019-02-14T04:26:24.808Z,19.07
2019-02-14T04:28:56.370Z,21.27
2019-02-14T04:31:27.927Z,20.27
2019-02-14T04:33:59.542Z,19.00
2019-02-14T04:36:36.150Z,17.50
2019-02-14T04:39:05.609Z,18.77
2019-02-14T04:41:37.024Z,21.70
2019-02-14T04:44:08.484Z,21.35
2019-02-14T04:46:40.130Z,19.55
2019-02-14T04:49:11.614Z,18.77
2019-02-14T04:51:43.190Z,22.40
2019-02-14T04:54:14.590Z,17.90
2019-02-14T04:56:45.978Z,19.82
2019-02-14T04:59:17.466Z,17.35
2019-02-14T05:01:48.878Z,19.20
2019-02-14T05:04:20.425Z,14.68
2019-02-14T05:06:51.984Z,15.32
2019-02-14T05:09:23.538Z,16.95
2019-02-14T05:11:55.064Z,16.25
2019-02-14T05:14:26.575Z,17.87
2019-02-14T05:16:58.017Z,17.77
2019-02-14T05:19:29.277Z,17.12
2019-02-14T05:22:01.005Z,19.25
2019-02-14T05:24:32.643Z,19.10
2019-02-14T05:27:04.256Z,18.82
2019-02-14T05:29:35.542Z,18.52
2019-02-14T05:32:07.105Z,15.10
2019-02-14T05:34:38.640Z,17.27
2019-02-14T05:37:09.869Z,15.75
2019-02-14T05:39:41.277Z,16.00
2019-02-14T05:42:12.600Z,14.83
2019-02-14T05:44:43.958Z,19.67
2019-02-14T05:47:15.388Z,16.05
2019-02-14T05:49:46.894Z,15.93
2019-02-14T05:52:18.162Z,18.25
2019-02-14T05:54:49.652Z,16.27
2019-02-14T05:57:21.300Z,16.60
2019-02-14T05:59:52.856Z,15.00
2019-02-14T06:02:24.514Z,17.32
2019-02-14T06:04:56.056Z,16.02
2019-02-14T06:07:27.656Z,15.78
2019-02-14T06:09:59.052Z,19.37
2019-02-14T06:12:30.683Z,17.98
2019-02-14T06:15:02.320Z,16.40
2019-02-14T06:17:33.836Z,18.87
2019-02-14T06:20:05.847Z,16.12
2019-02-14T06:22:37.407Z,19.02
2019-02-14T06:25:08.952Z,15.50
2019-02-14T06:27:41.219Z,18.35
2019-02-14T06:30:13.650Z,15.60
2019-02-14T06:32:45.249Z,20.08
2019-02-14T06:35:16.758Z,21.60
2019-02-14T06:37:48.330Z,19.75
2019-02-14T06:40:20.088Z,20.23
2019-02-14T06:42:51.446Z,17.82
2019-02-14T06:45:22.759Z,18.90
2019-02-14T06:47:54.157Z,18.70
2019-02-14T06:50:25.689Z,17.00
2019-02-14T06:52:57.232Z,16.67
2019-02-14T06:55:28.612Z,15.88
2019-02-14T06:58:00.426Z,16.97
2019-02-14T07:00:31.910Z,20.95
2019-02-14T07:03:03.669Z,18.48
2019-02-14T07:05:35.463Z,18.92
2019-02-14T07:08:07.028Z,17.37
2019-02-14T07:10:38.558Z,19.90
2019-02-14T07:13:10.076Z,20.72
2019-02-14T07:15:41.679Z,14.68
2019-02-14T07:18:12.941Z,17.15
2019-02-14T07:20:44.358Z,15.20
2019-02-14T07:23:15.595Z,18.35
2019-02-14T07:25:47.231Z,17.10
2019-02-14T07:28:18.637Z,16.50
2019-02-14T07:30:50.501Z,14.40
2019-02-14T07:33:21.981Z,16.85
2019-02-14T07:35:53.584Z,16.42
2019-02-14T07:38:25.060Z,14.45
2019-02-14T07:40:56.753Z,12.73
2019-02-14T07:43:28.357Z,15.15
2019-02-14T07:45:59.588Z,14.83
2019-02-14T07:48:30.800Z,14.18
2019-02-14T07:51:02.105Z,19.00
2019-02-14T07:53:33.331Z,11.85
2019-02-14T07:56:04.806Z,13.08
2019-02-14T07:58:36.135Z,14.07
2019-02-14T08:01:07.961Z,16.67
2019-02-14T08:03:39.233Z,13.95
2019-02-14T08:06:10.548Z,13.93
2019-02-14T08:08:41.880Z,14.95
2019-02-14T08:11:13.642Z,14.68
2019-02-14T08:13:44.960Z,14.07
2019-02-14T08:16:16.520Z,13.83
2019-02-14T08:18:48.267Z,12.73
2019-02-14T08:21:19.530Z,12.50
2019-02-14T08:23:51.024Z,12.05
2019-02-14T08:26:22.512Z,12.13
2019-02-14T08:28:54.380Z,10.78
2019-02-14T08:31:25.675Z,12.93
2019-02-14T08:33:57.243Z,13.78
2019-02-14T08:36:28.988Z,15.45
2019-02-14T08:39:00.674Z,13.18
2019-02-14T08:41:33.847Z,12.23
2019-02-14T08:44:05.378Z,11.63
2019-02-14T08:46:36.991Z,12.98
2019-02-14T08:49:08.599Z,14.53
2019-02-14T08:51:40.375Z,12.93
2019-02-14T08:54:11.942Z,11.78
2019-02-14T08:56:43.657Z,14.80
2019-02-14T08:59:15.331Z,14.03
2019-02-14T09:01:47.049Z,13.62
2019-02-14T09:04:18.598Z,16.00
2019-02-14T09:06:50.285Z,16.37
2019-02-14T09:09:21.944Z,10.45
2019-02-14T09:11:53.545Z,12.35
2019-02-14T09:14:25.120Z,16.73
2019-02-14T09:16:56.768Z,13.85
2019-02-14T09:19:28.159Z,10.13
2019-02-14T09:21:59.655Z,12.75
2019-02-14T09:24:30.908Z,13.95
2019-02-14T09:27:02.318Z,13.48
2019-02-14T09:29:33.775Z,21.25
2019-02-14T09:32:05.559Z,46.13
2019-02-14T09:34:37.237Z,37.15
2019-02-14T09:37:08.683Z,12.35
2019-02-14T09:39:41.066Z,12.20
2019-02-14T09:42:12.540Z,13.45
2019-02-14T09:44:43.886Z,20.52
2019-02-14T09:47:15.201Z,14.47
2019-02-14T09:49:46.587Z,11.10
2019-02-14T09:52:18.036Z,10.08
2019-02-14T09:54:49.456Z,10.98
2019-02-14T09:57:21.208Z,13.05
2019-02-14T09:59:52.781Z,10.25
2019-02-14T10:02:25.798Z,12.90
2019-02-14T10:04:57.392Z,11.15
2019-02-14T10:07:28.964Z,9.83
2019-02-14T10:10:00.641Z,10.03
2019-02-14T10:12:32.083Z,11.30
2019-02-14T10:15:03.973Z,9.50
2019-02-14T10:17:35.240Z,9.30
2019-02-14T10:20:07.922Z,10.30
2019-02-14T10:22:39.674Z,9.35
2019-02-14T10:25:11.569Z,8.80
2019-02-14T10:27:42.912Z,14.03
2019-02-14T10:30:16.538Z,8.33
2019-02-14T10:32:47.952Z,8.58
2019-02-14T10:35:19.557Z,13.78
2019-02-14T10:37:50.834Z,10.43
2019-02-14T10:40:22.135Z,10.43
2019-02-14T10:42:53.662Z,10.95
2019-02-14T10:45:26.010Z,9.20
2019-02-14T10:47:57.404Z,8.98
2019-02-14T10:50:28.913Z,8.38
2019-02-14T10:53:00.484Z,9.90
2019-02-14T10:55:31.981Z,9.98
2019-02-14T10:58:03.798Z,10.63
2019-02-14T11:00:35.579Z,10.40
2019-02-14T11:03:07.362Z,11.00
2019-02-14T11:05:38.891Z,8.98
2019-02-14T11:08:10.309Z,10.10
2019-02-14T11:10:41.660Z,9.60
2019-02-14T11:13:13.007Z,9.50
2019-02-14T11:15:44.237Z,14.28
2019-02-14T11:18:15.685Z,11.50
2019-02-14T11:20:47.085Z,10.18
2019-02-14T11:23:18.394Z,11.53
2019-02-14T11:25:49.788Z,9.83
2019-02-14T11:28:21.356Z,11.43
2019-02-14T11:30:52.970Z,9.20
2019-02-14T11:33:24.194Z,9.40
2019-02-14T11:35:55.729Z,9.73
2019-02-14T11:38:27.107Z,12.20
2019-02-14T11:40:58.686Z,11.10
2019-02-14T11:43:30.102Z,10.23
2019-02-14T11:46:01.484Z,10.23
2019-02-14T11:48:32.672Z,11.43
2019-02-14T11:51:03.919Z,9.53
2019-02-14T11:53:35.360Z,10.75
2019-02-14T11:56:06.679Z,10.80
2019-02-14T11:58:38.232Z,10.40
2019-02-14T12:01:09.850Z,12.98
2019-02-14T12:03:41.556Z,10.85
2019-02-14T12:06:17.616Z,15.32
2019-02-14T12:08:57.877Z,8.03
2019-02-14T12:11:19.057Z,10.08
2019-02-14T12:13:50.793Z,10.55
2019-02-14T12:16:22.014Z,11.75
2019-02-14T12:18:53.568Z,11.97
2019-02-14T12:21:24.877Z,12.65
2019-02-14T12:23:56.379Z,9.65
2019-02-14T12:26:27.723Z,10.32
2019-02-14T12:28:59.234Z,11.68
2019-02-14T12:31:30.521Z,12.10
2019-02-14T12:34:03.457Z,11.73
2019-02-14T12:36:35.231Z,11.88
2019-02-14T12:39:09.971Z,10.95
2019-02-14T12:41:40.549Z,12.37
2019-02-14T12:44:11.862Z,12.82
2019-02-14T12:46:43.499Z,14.20
2019-02-14T12:49:15.107Z,14.28
2019-02-14T12:51:46.825Z,11.63
2019-02-14T12:54:18.511Z,16.05
2019-02-14T12:56:49.950Z,13.83
2019-02-14T12:59:21.454Z,14.60
2019-02-14T13:01:53.018Z,13.90
2019-02-14T13:04:24.580Z,12.55
2019-02-14T13:06:55.834Z,13.55
2019-02-14T13:09:27.283Z,13.58
2019-02-14T13:11:58.821Z,12.03
2019-02-14T13:14:30.176Z,13.90
2019-02-14T13:17:01.710Z,13.98
2019-02-14T13:19:33.284Z,13.85
2019-02-14T13:22:04.482Z,17.50
2019-02-14T13:24:35.807Z,15.35
2019-02-14T13:27:07.405Z,18.17
2019-02-14T13:29:38.896Z,14.40
2019-02-14T13:32:10.306Z,14.07
2019-02-14T13:34:41.582Z,14.50
2019-02-14T13:37:13.056Z,16.87
2019-02-14T13:39:44.538Z,19.07
2019-02-14T13:42:16.298Z,16.90
2019-02-14T13:44:47.878Z,15.10
2019-02-14T13:47:19.243Z,15.38
2019-02-14T13:49:50.814Z,17.15
2019-02-14T13:52:22.305Z,17.42
2019-02-14T13:54:53.921Z,16.05
2019-02-14T13:57:25.684Z,17.98
2019-02-14T13:59:57.271Z,15.80
2019-02-14T14:02:28.916Z,15.63
2019-02-14T14:05:00.442Z,18.23
2019-02-14T14:07:40.185Z,20.85
2019-02-14T14:10:05.437Z,15.00
2019-02-14T14:12:37.139Z,15.23
2019-02-14T14:15:08.949Z,15.85
2019-02-14T14:17:40.821Z,16.02
2019-02-14T14:20:12.560Z,15.60
2019-02-14T14:22:44.242Z,15.55
2019-02-14T14:25:16.069Z,14.83
2019-02-14T14:27:47.563Z,15.80
2019-02-14T14:30:18.781Z,14.90
2019-02-14T14:32:50.176Z,17.02
2019-02-14T14:35:21.526Z,19.55
2019-02-14T14:37:52.846Z,16.02
2019-02-14T14:40:24.257Z,19.05
2019-02-14T14:43:25.091Z,15.58
2019-02-14T14:46:12.770Z,17.45
2019-02-14T14:48:44.377Z,15.58
2019-02-14T14:51:16.201Z,30.62
2019-02-14T14:53:47.607Z,20.97
2019-02-14T14:56:19.045Z,18.62
2019-02-14T14:58:50.461Z,20.80
2019-02-14T15:01:22.683Z,17.95
2019-02-14T15:03:55.145Z,16.02
2019-02-14T15:06:26.468Z,13.95
2019-02-14T15:08:58.019Z,16.93
2019-02-14T15:11:29.323Z,17.20
2019-02-14T15:14:01.778Z,19.30
2019-02-14T15:16:33.192Z,17.82
2019-02-14T15:19:04.766Z,18.87
2019-02-14T15:21:37.083Z,19.65
2019-02-14T15:24:08.672Z,15.50
2019-02-14T15:26:40.229Z,19.40
2019-02-14T15:29:11.968Z,17.40
2019-02-14T15:31:43.232Z,22.48
2019-02-14T15:34:14.559Z,21.27
2019-02-14T15:36:47.294Z,20.90
2019-02-14T15:39:19.474Z,21.90
2019-02-14T15:41:50.905Z,19.10
2019-02-14T15:44:22.515Z,21.40
2019-02-14T15:46:53.994Z,19.55
2019-02-14T15:49:25.504Z,23.02
2019-02-14T15:51:57.032Z,20.17
2019-02-14T15:54:28.563Z,18.75
2019-02-14T15:56:59.975Z,19.62
2019-02-14T15:59:31.663Z,23.67
2019-02-14T16:02:03.893Z,17.05
2019-02-14T16:04:36.012Z,20.40
2019-02-14T16:07:07.401Z,21.95
2019-02-14T16:09:41.260Z,23.12
2019-02-14T16:12:12.093Z,22.75
2019-02-14T16:14:44.804Z,20.60
2019-02-14T16:17:16.324Z,25.05
2019-02-14T16:19:47.799Z,21.90
2019-02-14T16:22:19.560Z,22.40
2019-02-14T16:24:50.930Z,25.40
2019-02-14T16:27:22.976Z,22.77
2019-02-14T16:29:55.147Z,23.87
2019-02-14T16:32:26.782Z,22.50
2019-02-14T16:34:58.099Z,23.98
2019-02-14T16:37:29.762Z,26.10
2019-02-14T16:40:01.224Z,26.35
2019-02-14T16:42:32.875Z,21.33
2019-02-14T16:45:04.437Z,19.00
2019-02-14T16:47:35.824Z,22.58
2019-02-14T16:50:08.109Z,25.23
2019-02-14T16:52:39.499Z,25.50
2019-02-14T16:55:11.010Z,23.02
2019-02-14T16:57:42.450Z,22.80
2019-02-14T17:00:14.159Z,22.95
2019-02-14T17:02:45.852Z,23.22
2019-02-14T17:05:17.514Z,23.30
2019-02-14T17:07:49.101Z,24.70
2019-02-14T17:10:20.702Z,25.23
2019-02-14T17:12:52.082Z,24.98
2019-02-14T17:15:23.356Z,26.50
2019-02-14T17:17:54.840Z,26.40
2019-02-14T17:20:26.135Z,26.68
2019-02-14T17:22:57.635Z,27.35
2019-02-14T17:25:29.381Z,28.02
2019-02-14T17:28:01.029Z,26.52
2019-02-14T17:30:32.538Z,28.87
2019-02-14T17:33:03.878Z,27.02
2019-02-14T17:35:35.173Z,28.57
2019-02-14T17:38:06.634Z,29.23
2019-02-14T17:40:45.825Z,28.10
2019-02-14T17:43:10.990Z,26.65
2019-02-14T17:45:42.496Z,28.90
2019-02-14T17:48:14.150Z,29.18
2019-02-14T17:50:45.686Z,28.62
2019-02-14T17:53:17.153Z,26.48
2019-02-14T17:55:48.777Z,28.40
2019-02-14T17:58:20.410Z,26.20
2019-02-14T18:00:51.709Z,29.25
2019-02-14T18:03:24.417Z,32.45
2019-02-14T18:05:56.078Z,29.30
2019-02-14T18:08:27.521Z,28.45
2019-02-14T18:10:58.735Z,31.12
2019-02-14T18:13:29.976Z,26.90
2019-02-14T18:16:01.514Z,29.18
2019-02-14T18:18:32.900Z,28.67
2019-02-14T18:21:04.375Z,32.55
2019-02-14T18:23:35.603Z,33.48
2019-02-14T18:26:06.959Z,30.05
2019-02-14T18:28:38.293Z,31.75
2019-02-14T18:31:09.811Z,28.02
2019-02-14T18:33:41.283Z,31.05
2019-02-14T18:36:12.886Z,26.77
2019-02-14T18:38:44.702Z,31.17
2019-02-14T18:41:16.049Z,29.15
2019-02-14T18:43:47.589Z,30.88
2019-02-14T18:46:19.230Z,33.90
2019-02-14T18:48:50.708Z,26.95
2019-02-14T18:51:22.383Z,29.80
2019-02-14T18:53:53.626Z,36.77
2019-02-14T18:56:24.924Z,29.18
2019-02-14T18:58:57.443Z,30.37
2019-02-14T19:01:29.290Z,29.95
2019-02-14T19:04:00.541Z,33.63
2019-02-14T19:06:32.092Z,28.50
2019-02-14T19:09:04.870Z,28.47
2019-02-14T19:11:36.928Z,30.17
2019-02-14T19:14:09.244Z,33.25
2019-02-14T19:16:40.603Z,31.55
2019-02-14T19:19:13.054Z,30.30
2019-02-14T19:21:44.627Z,29.85
2019-02-14T19:24:16.149Z,30.60
2019-02-14T19:26:47.785Z,34.27
2019-02-14T19:29:19.437Z,34.05
2019-02-14T19:31:50.885Z,31.52
2019-02-14T19:34:22.227Z,32.90
2019-02-14T19:36:53.858Z,27.77
2019-02-14T19:39:25.295Z,29.42
2019-02-14T19:41:56.792Z,31.68
2019-02-14T19:44:28.029Z,29.23
2019-02-14T19:46:59.285Z,33.18
2019-02-14T19:49:30.771Z,26.90
2019-02-14T19:52:02.108Z,29.07
2019-02-14T19:54:33.428Z,28.98
2019-02-14T19:57:05.243Z,30.08
2019-02-14T19:59:36.687Z,27.05
2019-02-14T20:02:08.018Z,32.83
2019-02-14T20:04:40.376Z,30.27
2019-02-14T20:07:11.813Z,31.17
2019-02-14T20:09:43.093Z,30.65
2019-02-14T20:12:14.357Z,28.98
2019-02-14T20:14:45.580Z,32.38
2019-02-14T20:17:18.352Z,31.77
2019-02-14T20:19:49.594Z,28.52
2019-02-14T20:22:21.221Z,26.80
2019-02-14T20:24:52.745Z,29.27
2019-02-14T20:27:24.325Z,29.87
2019-02-14T20:29:55.935Z,31.77
2019-02-14T20:32:27.445Z,30.88
2019-02-14T20:35:01.443Z,29.57
2019-02-14T20:37:32.028Z,30.20
2019-02-14T20:40:05.536Z,31.68
2019-02-14T20:42:37.164Z,31.52
2019-02-14T20:45:09.250Z,30.97
2019-02-14T20:47:40.938Z,29.18
2019-02-14T20:50:13.097Z,30.88
2019-02-14T20:52:44.583Z,30.23
2019-02-14T20:55:16.730Z,32.48
2019-02-14T20:57:48.248Z,33.60
2019-02-14T21:00:28.928Z,29.00
2019-02-14T21:03:00.240Z,33.67
2019-02-14T21:05:32.023Z,30.37
2019-02-14T21:08:04.751Z,33.98
2019-02-14T21:10:35.987Z,27.80
2019-02-14T21:13:07.349Z,32.88
2019-02-14T21:15:38.989Z,31.00
2019-02-14T21:18:10.298Z,35.20
2019-02-14T21:20:41.889Z,35.90
2019-02-14T21:23:13.190Z,35.58
2019-02-14T21:25:44.644Z,31.73
2019-02-14T21:28:16.138Z,28.67
2019-02-14T21:30:47.548Z,29.92
2019-02-14T21:33:18.770Z,28.98
2019-02-14T21:35:50.367Z,32.15
2019-02-14T21:38:21.559Z,28.10
2019-02-14T21:40:52.923Z,31.15
2019-02-14T21:43:24.166Z,29.63
2019-02-14T21:45:55.885Z,30.27
2019-02-14T21:48:27.439Z,32.03
2019-02-14T21:50:58.733Z,31.15
2019-02-14T21:53:29.977Z,30.55
2019-02-14T21:56:01.404Z,28.57
2019-02-14T21:58:33.168Z,31.15
2019-02-14T22:01:04.744Z,28.90
2019-02-14T22:03:36.448Z,30.97
2019-02-14T22:06:07.864Z,29.27
2019-02-14T22:08:39.444Z,31.55
2019-02-14T22:11:10.699Z,27.32
2019-02-14T22:13:41.927Z,30.12
2019-02-14T22:16:13.233Z,32.48
2019-02-14T22:18:44.619Z,32.88
2019-02-14T22:21:16.139Z,33.15
2019-02-14T22:23:47.348Z,36.80
2019-02-14T22:26:18.897Z,28.98
2019-02-14T22:28:50.376Z,34.67
2019-02-14T22:31:21.980Z,30.50
2019-02-14T22:33:53.458Z,32.78
2019-02-14T22:36:25.009Z,33.88
2019-02-14T22:38:56.576Z,30.75
2019-02-14T22:41:28.067Z,24.70
2019-02-14T22:43:59.352Z,30.12
2019-02-14T22:46:30.571Z,26.52
2019-02-14T22:49:02.075Z,29.80
2019-02-14T22:51:33.406Z,28.23
2019-02-14T22:54:05.064Z,29.10
2019-02-14T22:56:36.649Z,28.85
2019-02-14T22:59:08.419Z,32.73
2019-02-14T23:01:40.713Z,30.12
2019-02-14T23:04:12.325Z,30.35
2019-02-14T23:06:44.142Z,29.80
2019-02-14T23:09:16.211Z,30.25
2019-02-14T23:11:47.869Z,31.75
2019-02-14T23:14:19.423Z,29.42
2019-02-14T23:16:51.090Z,32.63
2019-02-14T23:19:22.508Z,29.12
2019-02-14T23:21:54.065Z,29.37
2019-02-14T23:24:25.558Z,27.17
2019-02-14T23:26:56.946Z,27.75
2019-02-14T23:29:28.539Z,27.25
2019-02-14T23:31:59.885Z,29.72
2019-02-14T23:34:31.401Z,26.80
2019-02-14T23:37:02.605Z,29.45
2019-02-14T23:39:34.226Z,29.18
2019-02-14T23:42:05.612Z,27.37
2019-02-14T23:44:36.841Z,30.60
2019-02-14T23:47:08.034Z,27.87
2019-02-14T23:49:39.562Z,33.95
2019-02-14T23:52:11.169Z,35.85
2019-02-14T23:54:42.667Z,28.38
2019-02-14T23:57:14.012Z,27.65
2019-02-14T23:59:45.541Z,28.12
